EST,Max TemperatureF,Mean TemperatureF,Min TemperatureF,Max Dew PointF,MeanDew PointF,Min DewpointF,Max Humidity, Mean Humidity, Min Humidity, Max Sea Level PressureIn, Mean Sea Level PressureIn, Min Sea Level PressureIn, Max VisibilityMiles, Mean VisibilityMiles, Min VisibilityMiles, Max Wind SpeedMPH, Mean Wind SpeedMPH, Max Gust SpeedMPH,PrecipitationIn, CloudCover, Events, WindDirDegrees
2012-11-1,73,62,51,50,38,28,82,43,19,30.00,29.95,29.89,10,10,10,16,8,28,0.00,0,,268
2012-11-2,78,60,42,54,45,41,93,60,30,30.08,30.01,29.95,10,10,10,15,3,21,0.00,0,,242
2012-11-3,82,70,59,63,58,50,100,75,34,30.12,30.07,30.02,10,10,5,8,4,,0.00,0,,272
2012-11-4,86,73,60,66,62,57,100,70,40,30.08,30.02,29.95,10,10,7,13,5,20,0.00,0,,235
2012-11-5,71,62,53,64,56,52,100,79,53,30.03,30.00,29.95,10,10,5,14,5,20,0.00,1,,343
2012-11-6,71,60,50,61,55,46,100,84,57,30.02,29.92,29.85,10,9,1,13,3,17,0.00,6,,357
2012-11-7,62,52,42,52,46,41,100,81,52,30.01,29.94,29.89,10,10,7,10,2,,0.00,5,,308
2012-11-8,68,56,44,52,47,43,100,81,40,30.19,30.12,30.01,10,6,0,9,3,,0.00,3,,308
2012-11-9,71,56,41,50,45,36,100,77,27,30.31,30.25,30.18,10,7,0,7,1,,0.00,0,,108
2012-11-10,73,58,42,57,49,41,100,79,31,30.38,30.34,30.28,10,5,0,9,1,,0.00,0,,74
2012-11-11,80,66,53,64,62,54,100,84,54,30.39,30.35,30.31,10,8,0,12,2,18,0.00,4,,68
2012-11-12,77,68,59,70,65,59,100,92,74,30.32,30.27,30.21,10,7,0,18,2,25,0.00,7,,125
2012-11-13,78,69,60,70,65,59,100,90,69,30.24,30.19,30.14,10,7,0,13,2,18,0.00,6,,334
2012-11-14,60,58,57,59,56,54,100,90,82,30.32,30.26,30.21,10,9,2,14,8,21,0.00,8,Thunderstorm,27
2012-11-15,62,56,51,55,53,50,100,89,72,30.25,30.20,30.16,10,9,2,10,6,,0.00,8,Thunderstorm,354
2012-11-16,59,54,50,54,51,50,100,91,77,30.27,30.24,30.21,10,9,2,8,4,,0.00,8,,3
2012-11-17,60,56,53,52,50,46,94,80,68,30.31,30.27,30.23,10,10,10,10,6,17,0.00,7,Thunderstorm,15
2012-11-18,69,61,53,55,52,48,94,75,56,30.28,30.24,30.18,10,10,7,12,6,18,0.00,5,,352
2012-11-19,64,60,57,59,55,54,94,83,73,30.22,30.17,30.13,10,10,7,9,6,,0.00,8,,351
2012-11-20,71,62,53,59,54,52,100,79,50,30.16,30.10,30.05,10,10,2,8,3,,0.00,1,,3
2012-11-21,71,60,48,55,50,46,100,78,43,30.14,30.09,30.06,10,8,0,8,2,,0.00,0,,4
2012-11-22,69,56,42,46,41,34,100,68,27,30.23,30.18,30.13,10,10,7,9,2,,0.00,0,,355
2012-11-23,73,55,37,52,44,37,100,73,33,30.22,30.13,30.03,10,8,1,9,2,,0.00,0,,254
2012-11-24,68,54,41,50,41,34,93,62,28,30.13,30.06,30.01,10,10,10,10,5,16,0.00,0,,287
2012-11-25,68,50,33,45,35,28,100,68,23,30.21,30.15,30.11,10,10,1,7,0,,0.00,0,,269
2012-11-26,71,52,33,50,38,27,100,69,19,30.28,30.22,30.17,10,8,0,7,0,,0.00,0,,142
2012-11-27,77,64,51,64,56,50,100,82,65,30.21,30.17,30.09,10,10,7,16,1,24,0.00,3,,303
2012-11-28,60,51,42,55,53,43,100,93,77,30.38,30.29,30.17,10,6,0,9,2,,0.00,7,,20
2012-11-29,68,56,44,55,52,45,100,82,60,30.41,30.37,30.34,10,9,0,13,6,20,0.00,1,,33
2012-11-30,75,63,51,61,57,50,100,84,57,30.36,30.31,30.27,10,9,0,12,4,,0.00,4,,41